createdAt,value
2017-04-30T00:00:12.550Z,9.62
2017-04-30T00:01:10.233Z,10.65
2017-04-30T00:02:07.677Z,8.65
2017-04-30T00:03:05.451Z,9.80
2017-04-30T00:04:03.089Z,7.85
2017-04-30T00:05:00.720Z,8.08
2017-04-30T00:05:58.159Z,9.10
2017-04-30T00:06:55.829Z,8.17
2017-04-30T00:07:53.219Z,8.87
2017-04-30T00:08:50.600Z,8.45
2017-04-30T00:09:48.037Z,10.03
2017-04-30T00:10:45.680Z,10.63
2017-04-30T00:11:43.060Z,8.37
2017-04-30T00:12:41.020Z,8.38
2017-04-30T00:13:38.485Z,9.75
2017-04-30T00:14:35.895Z,9.47
2017-04-30T00:15:33.280Z,8.98
2017-04-30T00:16:30.696Z,9.17
2017-04-30T00:17:28.098Z,8.45
2017-04-30T00:18:25.817Z,8.27
2017-04-30T00:19:23.254Z,10.22
2017-04-30T00:20:20.664Z,9.88
2017-04-30T00:21:18.305Z,9.87
2017-04-30T00:22:16.382Z,8.85
2017-04-30T00:23:13.810Z,11.00
2017-04-30T00:24:11.492Z,9.33
2017-04-30T00:25:08.901Z,8.55
2017-04-30T00:26:06.334Z,10.20
2017-04-30T00:27:03.744Z,9.77
2017-04-30T00:28:01.123Z,8.67
2017-04-30T00:28:58.524Z,10.68
2017-04-30T00:29:56.538Z,11.38
2017-04-30T00:30:53.936Z,10.22
2017-04-30T00:31:51.320Z,8.57
2017-04-30T00:32:48.709Z,10.55
2017-04-30T00:33:46.115Z,11.40
2017-04-30T00:34:43.510Z,8.13
2017-04-30T00:35:41.411Z,9.72
2017-04-30T00:36:38.826Z,9.95
2017-04-30T00:37:36.211Z,8.80
2017-04-30T00:38:33.606Z,9.98
2017-04-30T00:39:31.001Z,9.83
2017-04-30T00:40:28.444Z,9.10
2017-04-30T00:41:26.424Z,8.77
2017-04-30T00:42:23.896Z,8.97
2017-04-30T00:43:21.322Z,8.73
2017-04-30T00:44:18.730Z,8.38
2017-04-30T00:45:16.144Z,9.07
2017-04-30T00:46:13.544Z,9.43
2017-04-30T00:47:11.275Z,8.93
2017-04-30T00:48:09.072Z,9.78
2017-04-30T00:49:06.735Z,11.07
2017-04-30T00:50:04.361Z,9.52
2017-04-30T00:51:01.777Z,8.47
2017-04-30T00:51:59.416Z,7.88
2017-04-30T00:52:57.099Z,8.03
2017-04-30T00:53:54.512Z,10.12
2017-04-30T00:54:52.244Z,8.05
2017-04-30T00:55:49.644Z,7.95
2017-04-30T00:56:47.138Z,8.37
2017-04-30T00:57:44.546Z,13.48
2017-04-30T00:58:42.233Z,9.33
2017-04-30T00:59:39.633Z,9.07
2017-04-30T01:00:37.022Z,8.52
2017-04-30T01:01:34.736Z,8.27
2017-04-30T01:02:32.209Z,7.77
2017-04-30T01:03:29.632Z,7.87
2017-04-30T01:04:27.312Z,8.03
2017-04-30T01:05:25.059Z,8.80
2017-04-30T01:06:22.457Z,11.52
2017-04-30T01:07:19.868Z,9.45
2017-04-30T01:08:17.291Z,8.80
2017-04-30T01:09:14.671Z,9.72
2017-04-30T01:10:12.353Z,8.40
2017-04-30T01:11:09.823Z,11.22
2017-04-30T01:12:07.633Z,12.20
2017-04-30T01:13:05.031Z,9.53
2017-04-30T01:14:02.677Z,9.08
2017-04-30T01:15:00.333Z,12.97
2017-04-30T01:15:58.011Z,9.98
2017-04-30T01:16:55.437Z,8.95
2017-04-30T01:17:52.835Z,10.32
2017-04-30T01:18:50.249Z,10.15
2017-04-30T01:19:47.896Z,13.80
2017-04-30T01:20:45.333Z,9.92
2017-04-30T01:21:43.045Z,12.33
2017-04-30T01:22:40.466Z,11.02
2017-04-30T01:23:37.851Z,12.28
2017-04-30T01:24:35.496Z,11.12
2017-04-30T01:25:32.896Z,11.97
2017-04-30T01:26:30.298Z,17.45
2017-04-30T01:27:28.005Z,10.50
2017-04-30T01:28:25.418Z,13.12
2017-04-30T01:29:22.825Z,10.32
2017-04-30T01:30:20.444Z,10.15
2017-04-30T01:31:17.881Z,9.25
2017-04-30T01:32:15.333Z,11.10
2017-04-30T01:33:13.376Z,13.57
2017-04-30T01:34:11.036Z,13.12
2017-04-30T01:35:08.680Z,12.03
2017-04-30T01:36:06.118Z,13.83
2017-04-30T01:37:03.633Z,9.00
2017-04-30T01:38:01.052Z,9.28
2017-04-30T01:38:58.767Z,10.88
2017-04-30T01:39:56.165Z,11.52
2017-04-30T01:40:53.880Z,14.98
2017-04-30T01:41:51.321Z,13.40
2017-04-30T01:42:48.742Z,13.57
2017-04-30T01:43:46.145Z,14.78
2017-04-30T01:44:43.865Z,17.82
2017-04-30T01:45:41.280Z,18.08
2017-04-30T01:46:38.738Z,13.08
2017-04-30T01:47:36.142Z,12.77
2017-04-30T01:48:33.599Z,13.48
2017-04-30T01:49:31.015Z,13.37
2017-04-30T01:50:28.703Z,11.18
2017-04-30T01:51:26.129Z,12.40
2017-04-30T01:52:24.009Z,14.68
2017-04-30T01:53:21.415Z,13.60
2017-04-30T01:54:18.850Z,11.23
2017-04-30T01:55:16.245Z,9.67
2017-04-30T01:56:13.909Z,10.15
2017-04-30T01:57:11.293Z,10.25
2017-04-30T01:58:08.697Z,11.50
2017-04-30T01:59:06.104Z,12.33
2017-04-30T02:00:03.529Z,9.47
2017-04-30T02:01:00.980Z,10.47
2017-04-30T02:01:59.069Z,11.37
2017-04-30T02:02:56.522Z,9.73
2017-04-30T02:03:53.906Z,8.87
2017-04-30T02:04:51.325Z,7.95
2017-04-30T02:05:48.741Z,9.52
2017-04-30T02:06:46.454Z,11.15
2017-04-30T02:07:44.173Z,9.45
2017-04-30T02:08:41.577Z,7.85
2017-04-30T02:09:39.017Z,8.48
2017-04-30T02:10:36.437Z,9.40
2017-04-30T02:11:33.904Z,8.68
2017-04-30T02:12:31.317Z,8.58
2017-04-30T02:13:28.990Z,12.27
2017-04-30T02:14:26.941Z,8.92
2017-04-30T02:15:24.590Z,7.98
2017-04-30T02:16:22.005Z,7.45
2017-04-30T02:17:19.417Z,7.27
2017-04-30T02:18:16.846Z,7.52
2017-04-30T02:19:14.799Z,10.10
2017-04-30T02:20:12.510Z,6.70
2017-04-30T02:21:09.907Z,9.40
2017-04-30T02:22:07.318Z,6.70
2017-04-30T02:23:04.742Z,8.10
2017-04-30T02:24:02.144Z,6.90
2017-04-30T02:24:59.836Z,8.50
2017-04-30T02:25:57.224Z,8.22
2017-04-30T02:26:54.917Z,7.27
2017-04-30T02:27:52.346Z,9.28
2017-04-30T02:28:49.776Z,6.72
2017-04-30T02:29:47.177Z,7.58
2017-04-30T02:30:44.855Z,9.77
2017-04-30T02:31:42.666Z,7.30
2017-04-30T02:32:40.313Z,5.92
2017-04-30T02:33:37.724Z,7.05
2017-04-30T02:34:35.193Z,7.07
2017-04-30T02:35:32.858Z,7.57
2017-04-30T02:36:30.532Z,5.72
2017-04-30T02:37:27.943Z,6.02
2017-04-30T02:38:25.357Z,7.02
2017-04-30T02:39:22.762Z,8.37
2017-04-30T02:40:20.557Z,7.50
2017-04-30T02:41:18.004Z,7.32
2017-04-30T02:42:15.700Z,5.68
2017-04-30T02:43:13.092Z,7.87
2017-04-30T02:44:10.541Z,7.37
2017-04-30T02:45:07.944Z,5.67
2017-04-30T02:46:05.352Z,5.92
2017-04-30T02:47:02.813Z,7.03
2017-04-30T02:48:01.594Z,7.75
2017-04-30T02:48:59.257Z,5.77
2017-04-30T02:49:56.666Z,6.52
2017-04-30T02:50:54.313Z,7.03
2017-04-30T02:51:51.721Z,6.33
2017-04-30T02:52:49.122Z,7.07
2017-04-30T02:53:46.818Z,11.60
2017-04-30T02:54:44.231Z,7.20
2017-04-30T02:55:41.638Z,8.83
2017-04-30T02:56:39.288Z,7.57
2017-04-30T02:57:36.744Z,6.87
2017-04-30T02:58:34.163Z,8.15
2017-04-30T02:59:31.844Z,8.38
2017-04-30T03:00:29.258Z,7.10
2017-04-30T03:01:26.720Z,8.35
2017-04-30T03:02:24.113Z,7.95
2017-04-30T03:03:21.925Z,7.97
2017-04-30T03:04:19.304Z,8.88
2017-04-30T03:05:17.256Z,6.40
2017-04-30T03:06:14.648Z,7.17
2017-04-30T03:07:12.049Z,7.52
2017-04-30T03:08:09.436Z,7.15
2017-04-30T03:09:06.841Z,6.25
2017-04-30T03:10:04.318Z,6.93
2017-04-30T03:11:02.449Z,6.42
2017-04-30T03:11:59.914Z,6.78
2017-04-30T03:12:57.338Z,6.82
2017-04-30T03:13:54.824Z,6.78
2017-04-30T03:14:52.630Z,10.67
2017-04-30T03:15:50.032Z,6.63
2017-04-30T03:16:47.722Z,9.42
2017-04-30T03:17:45.140Z,7.80
2017-04-30T03:18:42.543Z,5.50
2017-04-30T03:19:39.946Z,8.48
2017-04-30T03:20:37.368Z,6.37
2017-04-30T03:21:34.765Z,6.28
2017-04-30T03:22:32.523Z,5.93
2017-04-30T03:23:29.917Z,5.77
2017-04-30T03:24:27.318Z,8.32
2017-04-30T03:25:24.757Z,6.80
2017-04-30T03:26:22.157Z,9.12
2017-04-30T03:27:19.810Z,6.52
2017-04-30T03:28:17.494Z,6.43
2017-04-30T03:29:14.893Z,7.62
2017-04-30T03:30:12.313Z,6.93
2017-04-30T03:31:09.687Z,8.63
2017-04-30T03:32:07.102Z,6.43
2017-04-30T03:33:04.505Z,6.82
2017-04-30T03:34:02.188Z,8.28
2017-04-30T03:34:59.578Z,7.45
2017-04-30T03:35:56.976Z,6.53
2017-04-30T03:36:56.392Z,6.95
2017-04-30T03:37:59.981Z,6.87
2017-04-30T03:39:03.223Z,6.22
2017-04-30T03:40:06.853Z,6.32
2017-04-30T03:41:09.932Z,5.65
2017-04-30T03:42:12.950Z,7.48
2017-04-30T03:43:16.311Z,5.97
2017-04-30T03:44:19.521Z,7.42
2017-04-30T03:45:23.033Z,5.88
2017-04-30T03:46:25.803Z,5.70
2017-04-30T03:47:28.654Z,6.98
2017-04-30T03:48:31.488Z,5.63
2017-04-30T03:49:34.753Z,5.43
2017-04-30T03:50:37.990Z,7.12
2017-04-30T03:51:40.828Z,7.20
2017-04-30T03:52:43.810Z,7.92
2017-04-30T03:53:46.809Z,6.92
2017-04-30T03:54:50.136Z,5.70
2017-04-30T03:55:53.501Z,6.18
2017-04-30T03:56:56.737Z,8.45
2017-04-30T03:57:59.540Z,6.12
2017-04-30T03:59:02.389Z,6.30
2017-04-30T04:00:05.516Z,6.12
2017-04-30T04:01:08.445Z,5.28
2017-04-30T04:02:11.462Z,10.87
2017-04-30T04:03:14.397Z,5.90
2017-04-30T04:04:17.389Z,9.30
2017-04-30T04:05:20.712Z,6.88
2017-04-30T04:06:24.015Z,6.40
2017-04-30T04:07:27.189Z,6.10
2017-04-30T04:08:30.536Z,7.40
2017-04-30T04:09:33.365Z,7.03
2017-04-30T04:10:36.618Z,6.08
2017-04-30T04:11:39.564Z,8.50
2017-04-30T04:12:42.361Z,5.28
2017-04-30T04:13:45.290Z,7.03
2017-04-30T04:14:48.750Z,5.15
2017-04-30T04:15:52.261Z,6.38
2017-04-30T04:16:55.113Z,5.87
2017-04-30T04:17:58.191Z,5.08
2017-04-30T04:19:01.195Z,6.50
2017-04-30T04:20:05.136Z,5.05
2017-04-30T04:21:08.326Z,6.45
2017-04-30T04:22:11.586Z,4.97
2017-04-30T04:23:14.429Z,5.15
2017-04-30T04:24:17.398Z,4.60
2017-04-30T04:25:20.276Z,5.72
2017-04-30T04:26:23.419Z,4.93
2017-04-30T04:27:26.274Z,5.67
2017-04-30T04:28:29.112Z,5.25
2017-04-30T04:29:32.368Z,4.68
2017-04-30T04:30:35.312Z,4.87
2017-04-30T04:31:38.422Z,6.98
2017-04-30T04:32:41.208Z,6.52
2017-04-30T04:33:44.164Z,5.80
2017-04-30T04:34:47.090Z,3.88
2017-04-30T04:35:50.116Z,5.90
2017-04-30T04:36:53.749Z,4.55
2017-04-30T04:37:56.863Z,4.57
2017-04-30T04:39:01.102Z,6.32
2017-04-30T04:40:04.088Z,4.52
2017-04-30T04:41:06.988Z,4.83
2017-04-30T04:42:10.324Z,5.12
2017-04-30T04:43:13.485Z,5.37
2017-04-30T04:44:16.358Z,3.90
2017-04-30T04:45:19.152Z,7.02
2017-04-30T04:46:22.080Z,4.87
2017-04-30T04:47:25.333Z,4.73
2017-04-30T04:48:28.201Z,4.47
2017-04-30T04:49:31.255Z,5.37
2017-04-30T04:50:34.149Z,5.15
2017-04-30T04:51:37.082Z,4.12
2017-04-30T04:52:40.281Z,6.17
2017-04-30T04:53:43.137Z,4.52
2017-04-30T04:54:45.934Z,4.48
2017-04-30T04:55:49.082Z,6.48
2017-04-30T04:56:51.918Z,4.50
2017-04-30T04:57:55.490Z,5.37
2017-04-30T04:58:58.334Z,4.23
2017-04-30T05:00:01.305Z,5.00
2017-04-30T05:01:04.630Z,7.07
2017-04-30T05:02:08.068Z,5.97
2017-04-30T05:03:11.921Z,5.53
2017-04-30T05:04:15.224Z,5.33
2017-04-30T05:05:18.084Z,5.80
2017-04-30T05:06:21.081Z,4.82
2017-04-30T05:07:24.352Z,4.37
2017-04-30T05:08:27.615Z,3.65
2017-04-30T05:09:30.810Z,4.33
2017-04-30T05:10:33.799Z,4.33
2017-04-30T05:11:37.096Z,4.82
2017-04-30T05:12:39.935Z,6.33
2017-04-30T05:13:43.271Z,4.20
2017-04-30T05:14:46.451Z,4.97
2017-04-30T05:15:49.355Z,6.40
2017-04-30T05:16:52.361Z,4.92
2017-04-30T05:17:56.671Z,4.60
2017-04-30T05:18:59.857Z,5.05
2017-04-30T05:20:02.928Z,6.93
2017-04-30T05:21:06.512Z,8.00
2017-04-30T05:22:09.313Z,5.08
2017-04-30T05:23:12.256Z,4.60
2017-04-30T05:24:15.549Z,4.87
2017-04-30T05:25:18.337Z,5.40
2017-04-30T05:26:21.201Z,5.15
2017-04-30T05:27:24.472Z,6.32
2017-04-30T05:28:27.337Z,4.12
2017-04-30T05:29:30.966Z,5.20
2017-04-30T05:30:33.854Z,6.02
2017-04-30T05:31:37.209Z,4.10
2017-04-30T05:32:40.098Z,5.88
2017-04-30T05:33:43.170Z,4.58
2017-04-30T05:34:46.954Z,4.12
2017-04-30T05:35:50.009Z,6.37
2017-04-30T05:36:53.379Z,6.35
2017-04-30T05:37:56.608Z,5.40
2017-04-30T05:38:59.742Z,4.53
2017-04-30T05:40:03.369Z,4.37
2017-04-30T05:41:06.725Z,3.60
2017-04-30T05:42:09.761Z,5.25
2017-04-30T05:43:13.068Z,7.67
2017-04-30T05:44:15.959Z,4.78
2017-04-30T05:45:19.285Z,3.73
2017-04-30T05:46:22.143Z,4.32
2017-04-30T05:47:26.324Z,4.42
2017-04-30T05:48:29.152Z,5.23
2017-04-30T05:49:32.470Z,4.67
2017-04-30T05:50:35.559Z,5.30
2017-04-30T05:51:39.017Z,4.42
2017-04-30T05:52:41.800Z,4.12
2017-04-30T05:53:44.785Z,4.50
2017-04-30T05:54:47.869Z,4.80
2017-04-30T05:55:52.861Z,4.33
2017-04-30T05:56:56.748Z,4.45
2017-04-30T05:57:59.769Z,4.90
2017-04-30T05:59:03.022Z,4.85
2017-04-30T06:00:05.872Z,8.40
2017-04-30T06:01:09.485Z,4.53
2017-04-30T06:02:12.452Z,4.65
2017-04-30T06:03:15.473Z,4.43
2017-04-30T06:04:18.362Z,3.57
2017-04-30T06:05:21.414Z,4.90
2017-04-30T06:06:24.600Z,5.48
2017-04-30T06:07:27.540Z,4.72
2017-04-30T06:08:30.803Z,4.78
2017-04-30T06:09:34.053Z,3.80
2017-04-30T06:10:37.054Z,4.75
2017-04-30T06:11:40.389Z,4.92
2017-04-30T06:12:43.607Z,4.57
2017-04-30T06:13:46.469Z,4.00
2017-04-30T06:14:50.019Z,4.57
2017-04-30T06:15:52.925Z,4.43
2017-04-30T06:16:56.053Z,4.45
2017-04-30T06:17:59.255Z,4.50
2017-04-30T06:19:02.303Z,6.63
2017-04-30T06:20:05.609Z,4.45
2017-04-30T06:21:08.779Z,5.07
2017-04-30T06:22:12.031Z,4.88
2017-04-30T06:23:14.818Z,4.82
2017-04-30T06:24:17.793Z,5.25
2017-04-30T06:25:21.113Z,6.38
2017-04-30T06:26:23.945Z,6.37
2017-04-30T06:27:27.342Z,5.67
2017-04-30T06:28:30.195Z,4.35
2017-04-30T06:29:33.528Z,5.30
2017-04-30T06:30:36.659Z,5.42
2017-04-30T06:31:39.699Z,5.05
2017-04-30T06:32:43.602Z,6.23
2017-04-30T06:33:47.066Z,4.83
2017-04-30T06:34:49.888Z,6.45
2017-04-30T06:35:52.823Z,5.92
2017-04-30T06:36:56.255Z,5.10
2017-04-30T06:37:59.402Z,4.30
2017-04-30T06:39:02.282Z,5.77
2017-04-30T06:40:05.394Z,6.25
2017-04-30T06:41:08.365Z,5.32
2017-04-30T06:42:11.410Z,5.85
2017-04-30T06:43:15.174Z,5.38
2017-04-30T06:44:18.073Z,6.23
2017-04-30T06:45:21.021Z,8.93
2017-04-30T06:46:24.374Z,5.50
2017-04-30T06:47:27.266Z,5.03
2017-04-30T06:48:30.884Z,4.85
2017-04-30T06:49:34.409Z,6.12
2017-04-30T06:50:37.323Z,7.98
2017-04-30T06:51:40.529Z,7.47
2017-04-30T06:52:43.790Z,5.92
2017-04-30T06:53:47.729Z,8.25
2017-04-30T06:54:50.719Z,6.45
2017-04-30T06:55:53.752Z,6.00
2017-04-30T06:56:56.622Z,5.52
2017-04-30T06:57:59.844Z,6.62
2017-04-30T06:59:03.333Z,6.42
2017-04-30T07:00:06.454Z,6.87
2017-04-30T07:01:09.880Z,6.33
2017-04-30T07:02:12.895Z,7.33
2017-04-30T07:03:16.216Z,6.48
2017-04-30T07:04:19.581Z,9.58
2017-04-30T07:05:22.875Z,7.48
2017-04-30T07:06:26.060Z,6.77
2017-04-30T07:07:28.855Z,7.72
2017-04-30T07:08:31.810Z,7.08
2017-04-30T07:09:34.911Z,7.03
2017-04-30T07:10:37.736Z,7.03
2017-04-30T07:11:40.763Z,7.52
2017-04-30T07:12:43.765Z,6.67
2017-04-30T07:13:47.519Z,6.00
2017-04-30T07:14:50.907Z,7.03
2017-04-30T07:15:53.789Z,6.80
2017-04-30T07:16:56.574Z,7.57
2017-04-30T07:18:00.823Z,7.82
2017-04-30T07:19:03.726Z,6.62
2017-04-30T07:20:07.067Z,6.87
2017-04-30T07:21:09.929Z,7.03
2017-04-30T07:23:14.098Z,7.30
2017-04-30T07:24:17.980Z,6.62
2017-04-30T07:25:21.065Z,6.30
2017-04-30T07:26:24.930Z,7.27
2017-04-30T07:27:28.050Z,7.00
2017-04-30T07:28:31.135Z,6.97
2017-04-30T07:29:34.510Z,9.38
2017-04-30T07:30:37.612Z,7.77
2017-04-30T07:31:40.489Z,9.57
2017-04-30T07:32:43.435Z,9.43
2017-04-30T07:33:46.751Z,7.77
2017-04-30T07:34:49.608Z,7.17
2017-04-30T07:35:52.914Z,6.95
2017-04-30T07:36:55.800Z,7.87
2017-04-30T07:37:58.585Z,7.18
2017-04-30T07:39:01.550Z,8.83
2017-04-30T07:40:04.569Z,8.47
2017-04-30T07:41:07.800Z,8.65
2017-04-30T07:42:10.616Z,7.83
2017-04-30T07:43:08.016Z,7.65
2017-04-30T07:44:06.414Z,7.45
2017-04-30T07:45:03.892Z,7.02
2017-04-30T07:46:01.670Z,7.72
2017-04-30T07:46:59.369Z,8.48
2017-04-30T07:47:56.770Z,8.02
2017-04-30T07:48:54.483Z,8.65
2017-04-30T07:49:52.212Z,7.52
2017-04-30T07:50:49.613Z,7.63
2017-04-30T07:51:47.767Z,8.52
2017-04-30T07:52:45.475Z,7.93
2017-04-30T07:53:42.896Z,7.75
2017-04-30T07:54:40.305Z,7.27
2017-04-30T07:55:37.742Z,7.83
2017-04-30T07:56:36.322Z,7.78
2017-04-30T07:57:33.752Z,8.20
2017-04-30T07:58:31.450Z,8.85
2017-04-30T07:59:28.857Z,9.37
2017-04-30T08:00:26.255Z,8.82
2017-04-30T08:01:23.655Z,10.00
2017-04-30T08:02:21.085Z,8.68
2017-04-30T08:03:18.477Z,8.33
2017-04-30T08:04:16.396Z,8.52
2017-04-30T08:05:13.826Z,7.83
2017-04-30T08:06:11.225Z,7.85
2017-04-30T08:07:09.017Z,7.53
2017-04-30T08:08:07.242Z,9.22
2017-04-30T08:09:04.694Z,8.57
2017-04-30T08:10:02.393Z,10.30
2017-04-30T08:10:59.828Z,10.72
2017-04-30T08:11:57.235Z,9.32
2017-04-30T08:12:54.662Z,9.08
2017-04-30T08:13:52.062Z,8.18
2017-04-30T08:14:49.465Z,8.10
2017-04-30T08:15:47.192Z,8.75
2017-04-30T08:16:44.584Z,8.33
2017-04-30T08:17:42.228Z,8.93
2017-04-30T08:18:39.649Z,7.33
2017-04-30T08:19:37.053Z,9.53
2017-04-30T08:20:34.467Z,9.78
2017-04-30T08:21:32.181Z,8.72
2017-04-30T08:22:29.834Z,7.85
2017-04-30T08:23:27.494Z,9.15
2017-04-30T08:24:24.892Z,8.40
2017-04-30T08:25:22.291Z,8.95
2017-04-30T08:26:19.714Z,9.42
2017-04-30T08:27:17.385Z,9.72
2017-04-30T08:28:14.800Z,9.18
2017-04-30T08:29:12.209Z,9.62
2017-04-30T08:30:09.613Z,10.02
2017-04-30T08:31:07.023Z,10.37
2017-04-30T08:32:05.088Z,9.50
2017-04-30T08:33:03.109Z,9.42
2017-04-30T08:34:00.758Z,10.25
2017-04-30T08:34:58.140Z,9.02
2017-04-30T08:35:55.557Z,11.58
2017-04-30T08:36:53.185Z,9.27
2017-04-30T08:37:50.585Z,9.95
2017-04-30T08:38:48.259Z,9.73
2017-04-30T08:39:45.693Z,9.50
2017-04-30T08:40:43.137Z,11.07
2017-04-30T08:41:40.527Z,9.43
2017-04-30T08:42:38.193Z,11.75
2017-04-30T08:43:35.599Z,10.17
2017-04-30T08:44:33.538Z,10.73
2017-04-30T08:45:30.945Z,10.50
2017-04-30T08:46:28.601Z,10.52
2017-04-30T08:47:26.030Z,11.10
2017-04-30T08:48:23.442Z,11.00
2017-04-30T08:49:20.846Z,10.85
2017-04-30T08:50:18.546Z,9.98
2017-04-30T08:51:15.954Z,11.67
2017-04-30T08:52:13.366Z,10.83
2017-04-30T08:53:11.021Z,12.52
2017-04-30T08:54:08.418Z,10.45
2017-04-30T08:55:06.910Z,10.82
2017-04-30T08:56:04.594Z,11.02
2017-04-30T08:57:02.025Z,12.00
2017-04-30T08:57:59.460Z,10.72
2017-04-30T08:58:56.894Z,11.35
2017-04-30T08:59:54.327Z,12.62
2017-04-30T09:00:51.752Z,12.40
2017-04-30T09:01:49.437Z,12.68
2017-04-30T09:02:47.124Z,10.83
2017-04-30T09:03:44.550Z,9.83
2017-04-30T09:04:41.999Z,11.90
2017-04-30T09:05:39.426Z,9.92
2017-04-30T09:06:36.828Z,10.65
2017-04-30T09:07:34.516Z,11.37
2017-04-30T09:08:32.314Z,10.92
2017-04-30T09:09:29.713Z,12.53
2017-04-30T09:10:27.135Z,12.83
2017-04-30T09:11:24.593Z,12.30
2017-04-30T09:12:22.041Z,11.42
2017-04-30T09:13:19.737Z,11.98
2017-04-30T09:14:17.158Z,10.22
2017-04-30T09:15:14.784Z,10.87
2017-04-30T09:16:12.204Z,11.50
2017-04-30T09:17:09.624Z,12.12
2017-04-30T09:18:07.045Z,12.30
2017-04-30T09:19:04.761Z,11.68
2017-04-30T09:20:02.145Z,9.60
2017-04-30T09:20:59.559Z,10.40
2017-04-30T09:21:56.984Z,11.93
2017-04-30T09:22:54.385Z,10.62
2017-04-30T09:23:52.205Z,10.68
2017-04-30T09:24:50.022Z,11.42
2017-04-30T09:25:47.670Z,11.68
2017-04-30T09:26:45.056Z,13.42
2017-04-30T09:27:42.465Z,11.02
2017-04-30T09:28:39.930Z,13.47
2017-04-30T09:29:38.657Z,11.98
2017-04-30T09:30:36.952Z,12.57
2017-04-30T09:31:34.853Z,12.47
2017-04-30T09:32:32.243Z,10.92
2017-04-30T09:33:29.674Z,10.77
2017-04-30T09:34:28.046Z,12.05
2017-04-30T09:35:25.465Z,12.93
2017-04-30T09:36:23.175Z,12.90
2017-04-30T09:37:20.582Z,12.70
2017-04-30T09:38:18.347Z,11.33
2017-04-30T09:39:16.074Z,11.12
2017-04-30T09:40:13.495Z,11.28
2017-04-30T09:41:10.909Z,12.00
2017-04-30T09:42:08.602Z,12.82
2017-04-30T09:43:06.011Z,11.77
2017-04-30T09:44:03.788Z,11.78
2017-04-30T09:45:01.214Z,13.08
2017-04-30T09:45:59.065Z,13.12
2017-04-30T09:46:56.730Z,13.97
2017-04-30T09:47:54.657Z,11.15
2017-04-30T09:48:52.338Z,10.50
2017-04-30T09:49:49.745Z,12.70
2017-04-30T09:50:47.422Z,11.60
2017-04-30T09:51:44.844Z,12.10
2017-04-30T09:52:42.265Z,11.72
2017-04-30T09:53:39.954Z,10.23
2017-04-30T09:54:37.409Z,11.97
2017-04-30T09:55:34.839Z,10.70
2017-04-30T09:56:32.249Z,12.72
2017-04-30T09:57:29.676Z,12.57
2017-04-30T09:58:27.114Z,12.60
2017-04-30T09:59:25.142Z,11.28
2017-04-30T10:00:23.489Z,11.95
2017-04-30T10:01:21.567Z,11.93
2017-04-30T10:02:18.990Z,12.53
2017-04-30T10:03:16.418Z,11.42
2017-04-30T10:04:13.857Z,12.47
2017-04-30T10:05:11.545Z,10.65
2017-04-30T10:06:08.948Z,10.45
2017-04-30T10:07:06.352Z,12.03
2017-04-30T10:08:04.413Z,10.97
2017-04-30T10:09:01.848Z,12.78
2017-04-30T10:09:59.253Z,11.15
2017-04-30T10:10:56.944Z,11.30
2017-04-30T10:11:54.370Z,11.23
2017-04-30T10:12:52.034Z,12.05
2017-04-30T10:13:49.539Z,11.98
2017-04-30T10:14:46.935Z,12.53
2017-04-30T10:15:45.456Z,11.52
2017-04-30T10:16:43.136Z,10.82
2017-04-30T10:17:40.986Z,11.30
2017-04-30T10:18:38.399Z,12.02
2017-04-30T10:19:35.829Z,12.47
2017-04-30T10:20:33.244Z,11.12
2017-04-30T10:21:30.683Z,12.52
2017-04-30T10:22:28.344Z,11.05
2017-04-30T10:23:26.517Z,11.95
2017-04-30T10:24:23.939Z,12.32
2017-04-30T10:25:21.424Z,13.90
2017-04-30T10:26:19.096Z,13.30
2017-04-30T10:27:16.518Z,11.60
2017-04-30T10:28:14.279Z,11.27
2017-04-30T10:29:12.664Z,11.27
2017-04-30T10:30:10.401Z,11.75
2017-04-30T10:31:08.792Z,12.38
2017-04-30T10:32:06.217Z,11.33
2017-04-30T10:33:03.888Z,14.87
2017-04-30T10:34:01.977Z,12.02
2017-04-30T10:34:59.437Z,10.92
2017-04-30T10:35:56.875Z,11.63
2017-04-30T10:36:54.388Z,12.37
2017-04-30T10:37:51.817Z,11.98
2017-04-30T10:38:49.244Z,11.85
2017-04-30T10:39:46.932Z,12.33
2017-04-30T10:40:44.653Z,11.38
2017-04-30T10:41:42.055Z,12.00
2017-04-30T10:42:39.618Z,13.00
2017-04-30T10:43:37.270Z,12.07
2017-04-30T10:44:34.690Z,13.15
2017-04-30T10:45:33.257Z,12.10
2017-04-30T10:46:30.941Z,10.43
2017-04-30T10:47:28.374Z,11.17
2017-04-30T10:48:26.037Z,12.60
2017-04-30T10:49:23.841Z,12.47
2017-04-30T10:50:21.262Z,12.65
2017-04-30T10:51:19.307Z,12.97
2017-04-30T10:52:16.725Z,11.53
2017-04-30T10:53:14.160Z,11.13
2017-04-30T10:54:11.827Z,11.63
2017-04-30T10:55:09.224Z,11.90
2017-04-30T10:56:06.849Z,12.13
2017-04-30T10:57:04.556Z,11.07
2017-04-30T10:58:01.959Z,11.47
2017-04-30T10:58:59.689Z,12.12
2017-04-30T10:59:58.021Z,11.00
2017-04-30T11:00:55.430Z,12.17
2017-04-30T11:01:52.836Z,11.27
2017-04-30T11:02:50.578Z,11.22
2017-04-30T11:03:48.003Z,10.78
2017-04-30T11:04:45.416Z,11.17
2017-04-30T11:05:42.850Z,11.30
2017-04-30T11:06:40.809Z,11.23
2017-04-30T11:07:38.217Z,11.95
2017-04-30T11:08:36.116Z,11.38
2017-04-30T11:09:33.803Z,11.98
2017-04-30T11:10:31.245Z,12.42
2017-04-30T11:11:30.071Z,11.07
2017-04-30T11:12:28.058Z,11.32
2017-04-30T11:13:25.486Z,12.32
2017-04-30T11:14:23.223Z,11.78
2017-04-30T11:15:20.631Z,12.50
2017-04-30T11:16:18.021Z,11.53
2017-04-30T11:17:15.729Z,11.18
2017-04-30T11:18:13.464Z,10.45
2017-04-30T11:19:11.251Z,12.20
2017-04-30T11:20:08.956Z,15.52
2017-04-30T11:21:06.616Z,12.00
2017-04-30T11:22:04.016Z,11.77
2017-04-30T11:23:02.309Z,14.48
2017-04-30T11:23:59.692Z,10.35
2017-04-30T11:24:57.219Z,13.83
2017-04-30T11:25:54.918Z,11.77
2017-04-30T11:26:52.309Z,10.82
2017-04-30T11:27:49.736Z,11.57
2017-04-30T11:28:47.169Z,10.67
2017-04-30T11:29:44.558Z,10.37
2017-04-30T11:30:42.213Z,11.00
2017-04-30T11:31:40.534Z,10.55
2017-04-30T11:32:37.929Z,9.98
2017-04-30T11:33:35.329Z,10.68
2017-04-30T11:34:32.733Z,9.95
2017-04-30T11:35:30.169Z,10.08
2017-04-30T11:36:28.430Z,10.37
2017-04-30T11:37:26.105Z,9.70
2017-04-30T11:38:23.563Z,10.30
2017-04-30T11:39:20.985Z,10.83
2017-04-30T11:40:19.103Z,10.47
2017-04-30T11:41:16.764Z,11.38
2017-04-30T11:42:14.186Z,10.88
2017-04-30T11:43:11.902Z,11.53
2017-04-30T11:44:09.342Z,10.75
2017-04-30T11:45:06.744Z,10.77
2017-04-30T11:46:04.157Z,10.30
2017-04-30T11:47:01.616Z,9.37
2017-04-30T11:47:59.037Z,9.40
2017-04-30T11:48:56.717Z,9.48
2017-04-30T11:49:54.503Z,10.78
2017-04-30T11:50:51.892Z,9.33
2017-04-30T11:51:49.532Z,9.75
2017-04-30T11:52:47.161Z,9.53
2017-04-30T11:53:44.564Z,10.78
2017-04-30T11:54:42.225Z,9.80
2017-04-30T11:55:39.622Z,10.12
2017-04-30T11:56:37.020Z,9.47
2017-04-30T11:57:34.435Z,9.10
2017-04-30T11:58:31.849Z,9.62
2017-04-30T11:59:29.267Z,9.37
2017-04-30T12:00:26.961Z,9.97
2017-04-30T12:01:24.609Z,9.70
2017-04-30T12:02:22.765Z,9.65
2017-04-30T12:03:20.152Z,9.90
2017-04-30T12:04:17.859Z,9.05
2017-04-30T12:05:15.556Z,9.03
2017-04-30T12:06:13.241Z,8.73
2017-04-30T12:07:10.640Z,8.75
2017-04-30T12:08:08.059Z,8.02
2017-04-30T12:09:05.482Z,8.40
2017-04-30T12:10:02.885Z,9.85
2017-04-30T12:11:00.290Z,7.28
2017-04-30T12:11:58.392Z,9.65
2017-04-30T12:12:55.797Z,9.00
2017-04-30T12:13:53.240Z,8.45
2017-04-30T12:14:50.988Z,8.70
2017-04-30T12:15:48.937Z,8.40
2017-04-30T12:16:46.346Z,8.87
2017-04-30T12:17:44.564Z,9.22
2017-04-30T12:18:42.196Z,9.25
2017-04-30T12:19:39.976Z,9.10
2017-04-30T12:20:37.884Z,8.30
2017-04-30T12:21:35.288Z,9.22
2017-04-30T12:22:32.695Z,9.18
2017-04-30T12:23:30.406Z,9.93
2017-04-30T12:24:27.817Z,8.13
2017-04-30T12:25:25.491Z,9.77
2017-04-30T12:26:23.126Z,10.25
2017-04-30T12:27:20.529Z,8.77
2017-04-30T12:28:17.930Z,8.78
2017-04-30T12:29:16.493Z,9.22
2017-04-30T12:30:14.119Z,8.40
2017-04-30T12:31:11.801Z,9.75
2017-04-30T12:32:09.192Z,8.93
2017-04-30T12:33:06.822Z,8.50
2017-04-30T12:34:04.225Z,8.15
2017-04-30T12:35:01.915Z,8.97
2017-04-30T12:35:59.350Z,8.48
2017-04-30T12:36:56.749Z,8.73
2017-04-30T12:37:54.154Z,8.75
2017-04-30T12:38:51.582Z,8.30
2017-04-30T12:39:49.097Z,8.40
2017-04-30T12:40:46.781Z,7.47
2017-04-30T12:41:44.201Z,7.97
2017-04-30T12:42:41.851Z,8.17
2017-04-30T12:43:39.241Z,8.97
2017-04-30T12:44:36.624Z,7.95
2017-04-30T12:45:34.270Z,7.95
2017-04-30T12:46:31.932Z,7.48
2017-04-30T12:47:29.361Z,8.70
2017-04-30T12:48:26.751Z,7.72
2017-04-30T12:49:25.717Z,7.98
2017-04-30T12:50:23.104Z,7.50
2017-04-30T12:51:20.505Z,8.08
2017-04-30T12:52:18.238Z,7.15
2017-04-30T12:53:15.926Z,8.65
2017-04-30T12:54:13.728Z,7.53
2017-04-30T12:55:11.136Z,6.45
2017-04-30T12:56:08.543Z,8.53
2017-04-30T12:57:06.938Z,7.78
2017-04-30T12:58:05.320Z,7.80
2017-04-30T12:59:02.864Z,8.88
2017-04-30T13:00:00.265Z,6.75